Time;durP1;ratioP1;P1;durP2;ratioP2;P2;SDS_P1;SDS_P2;PMS_P1;PMS_P2;Temp;Humidity;BMP_temperature;BMP_pressure;BME280_temperature;BME280_humidity;BME280_pressure;Samples;Min_cycle;Max_cycle;Signal;HPM_P1;HPM_P2
2024/02/25 00:02:13;;;;;;;;;;;7.70;99.90;;;;;;5048516;28;19924;-79
2024/02/25 00:04:39;;;;;;;;;;;7.90;99.90;;;;;;5031458;28;20600;-76
2024/02/25 00:07:04;;;;;;;;;;;7.90;99.90;;;;;;5045105;28;19909;-77
2024/02/25 00:09:30;;;;;;;;;;;7.80;99.90;;;;;;5047377;28;19968;-76
2024/02/25 00:11:56;;;;;;;;;;;7.80;99.90;;;;;;5053093;28;19935;-78
2024/02/25 00:14:28;;;;;;;;;;;7.70;99.90;;;;;;5052803;28;19905;-78
2024/02/25 00:16:54;;;;;;;;;;;7.60;99.90;;;;;;5050058;28;19911;-78
2024/02/25 00:19:19;;;;;;;;;;;7.60;99.90;;;;;;5049748;28;19905;-78
2024/02/25 00:21:45;;;;;;;;;;;7.60;99.90;;;;;;5049690;28;19931;-77
2024/02/25 00:24:10;;;;;;;;;;;7.40;99.90;;;;;;5047880;28;19912;-78
2024/02/25 00:26:36;;;;;;;;;;;7.30;99.90;;;;;;5033961;28;19909;-78
2024/02/25 00:29:02;;;;;;;;;;;7.30;99.90;;;;;;5049771;28;19909;-77
2024/02/25 00:31:27;;;;;;;;;;;7.40;99.90;;;;;;5033498;28;19909;-78
2024/02/25 00:33:53;;;;;;;;;;;7.40;99.90;;;;;;5050982;28;19897;-78
2024/02/25 00:36:18;;;;;;;;;;;7.30;99.90;;;;;;5032931;28;19905;-78
2024/02/25 00:38:44;;;;;;;;;;;7.30;99.90;;;;;;5027323;28;20449;-77
2024/02/25 00:41:09;;;;;;;;;;;7.30;99.90;;;;;;5030260;28;19943;-77
2024/02/25 00:43:35;;;;;;;;;;;7.30;99.90;;;;;;5048791;28;19940;-77
2024/02/25 00:46:00;;;;;;;;;;;7.30;99.90;;;;;;5030625;28;19992;-78
2024/02/25 00:48:26;;;;;;;;;;;7.20;99.90;;;;;;5050242;28;19968;-79
2024/02/25 00:50:52;;;;;;;;;;;7.20;99.90;;;;;;5031639;28;19905;-77
2024/02/25 00:53:17;;;;;;;;;;;7.10;99.90;;;;;;5046335;28;20378;-78
2024/02/25 00:55:43;;;;;;;;;;;7.10;99.90;;;;;;5046007;28;19909;-78
2024/02/25 00:58:08;;;;;;;;;;;7.10;99.90;;;;;;5045256;28;20254;-78
2024/02/25 01:00:33;;;;;;;;;;;7.10;99.90;;;;;;5028637;28;19913;-77
2024/02/25 01:02:59;;;;;;;;;;;7.10;99.90;;;;;;5046391;28;19905;-79
2024/02/25 01:05:25;;;;;;;;;;;7.00;99.90;;;;;;5046946;28;19917;-78
2024/02/25 01:07:51;;;;;;;;;;;7.00;99.90;;;;;;5031094;28;19931;-77
2024/02/25 01:10:17;;;;;;;;;;;6.90;99.90;;;;;;5047511;28;19905;-78
2024/02/25 01:12:43;;;;;;;;;;;6.90;99.90;;;;;;5048482;28;19905;-79
2024/02/25 01:15:09;;;;;;;;;;;6.90;99.90;;;;;;5046948;28;19905;-77
2024/02/25 01:17:34;;;;;;;;;;;6.90;99.90;;;;;;5030494;28;19936;-78
2024/02/25 01:20:00;;;;;;;;;;;6.80;99.90;;;;;;5031504;28;19912;-78
2024/02/25 01:22:26;;;;;;;;;;;6.70;99.90;;;;;;5030161;28;20374;-77
2024/02/25 01:24:54;;;;;;;;;;;7.00;99.90;;;;;;5048193;28;19914;-78
2024/02/25 01:27:20;;;;;;;;;;;6.80;99.90;;;;;;5048191;28;19951;-78
2024/02/25 01:29:45;;;;;;;;;;;6.70;99.90;;;;;;5031227;28;19904;-78
2024/02/25 01:32:11;;;;;;;;;;;6.70;99.90;;;;;;5031471;28;19905;-78
2024/02/25 01:34:36;;;;;;;;;;;6.60;99.90;;;;;;5030243;28;19889;-78
2024/02/25 01:37:04;;;;;;;;;;;6.60;99.90;;;;;;5034550;28;19905;-79
2024/02/25 01:39:33;;;;;;;;;;;6.70;99.90;;;;;;5037629;28;19968;-78
2024/02/25 01:41:59;;;;;;;;;;;6.70;99.90;;;;;;5037066;28;19916;-79
2024/02/25 01:44:24;;;;;;;;;;;6.50;99.90;;;;;;5035561;28;19909;-79
2024/02/25 01:46:50;;;;;;;;;;;6.60;99.90;;;;;;5035713;28;19905;-78
2024/02/25 01:49:15;;;;;;;;;;;6.60;99.90;;;;;;5035713;28;19924;-77
2024/02/25 01:51:45;;;;;;;;;;;6.50;99.90;;;;;;5050819;28;19927;-78
2024/02/25 01:54:11;;;;;;;;;;;6.30;99.90;;;;;;5032020;28;20419;-78
2024/02/25 01:56:37;;;;;;;;;;;6.50;99.90;;;;;;5030467;28;19905;-78
2024/02/25 01:59:03;;;;;;;;;;;6.70;99.90;;;;;;5048521;28;19932;-78
2024/02/25 02:01:30;;;;;;;;;;;6.80;99.90;;;;;;5047472;28;19917;-78
2024/02/25 02:03:55;;;;;;;;;;;6.30;99.90;;;;;;5023320;28;19920;-77
2024/02/25 02:06:21;;;;;;;;;;;6.30;99.90;;;;;;5024910;28;19905;-78
2024/02/25 02:08:47;;;;;;;;;;;6.40;99.90;;;;;;5053310;28;19939;-77
2024/02/25 02:11:15;;;;;;;;;;;6.40;99.90;;;;;;5036691;28;20319;-78
2024/02/25 02:13:41;;;;;;;;;;;6.50;99.90;;;;;;5044827;28;19913;-77
2024/02/25 02:16:10;;;;;;;;;;;7.30;99.90;;;;;;5046991;28;19916;-78
2024/02/25 02:18:35;;;;;;;;;;;6.90;99.90;;;;;;5029383;28;20334;-77
2024/02/25 02:21:01;;;;;;;;;;;7.50;99.90;;;;;;5028520;28;20389;-77
2024/02/25 02:23:26;;;;;;;;;;;6.60;99.90;;;;;;5026122;28;19913;-77
2024/02/25 02:25:52;;;;;;;;;;;6.60;99.90;;;;;;5029076;28;19905;-77
2024/02/25 02:28:17;;;;;;;;;;;6.70;99.90;;;;;;5028172;28;19913;-78
2024/02/25 02:30:43;;;;;;;;;;;6.70;99.90;;;;;;5026174;28;20255;-76
2024/02/25 02:33:09;;;;;;;;;;;6.60;99.90;;;;;;5027359;28;19905;-78
2024/02/25 02:35:34;;;;;;;;;;;6.70;99.90;;;;;;5033027;28;20434;-78
2024/02/25 02:38:00;;;;;;;;;;;6.90;99.90;;;;;;5032884;28;19931;-79
2024/02/25 02:40:25;;;;;;;;;;;6.70;99.90;;;;;;5034448;28;19909;-79
2024/02/25 02:42:52;;;;;;;;;;;6.80;99.90;;;;;;5032764;28;19909;-77
2024/02/25 02:45:18;;;;;;;;;;;6.70;99.90;;;;;;5036209;28;19897;-77
2024/02/25 02:47:43;;;;;;;;;;;6.70;99.90;;;;;;5034404;28;20420;-78
2024/02/25 02:50:10;;;;;;;;;;;6.70;99.90;;;;;;5030798;28;19931;-76
2024/02/25 02:52:36;;;;;;;;;;;6.70;99.90;;;;;;5031172;28;20003;-78
2024/02/25 02:55:01;;;;;;;;;;;7.00;99.90;;;;;;5029912;28;19962;-77
2024/02/25 02:57:27;;;;;;;;;;;6.60;99.90;;;;;;5046204;28;19936;-77
2024/02/25 02:59:52;;;;;;;;;;;6.60;99.90;;;;;;5048367;28;19908;-78
2024/02/25 03:02:18;;;;;;;;;;;6.60;99.90;;;;;;5030752;28;20396;-79
2024/02/25 03:04:43;;;;;;;;;;;6.60;99.90;;;;;;5049741;28;19923;-77
2024/02/25 03:07:09;;;;;;;;;;;6.50;99.90;;;;;;5050873;28;19905;-78
2024/02/25 03:09:34;;;;;;;;;;;6.60;99.90;;;;;;5030642;28;19905;-77
2024/02/25 03:12:00;;;;;;;;;;;6.60;99.90;;;;;;5031933;28;19969;-78
2024/02/25 03:14:25;;;;;;;;;;;6.60;99.90;;;;;;5049119;28;19909;-78
2024/02/25 03:16:51;;;;;;;;;;;6.60;99.90;;;;;;5048191;28;19951;-77
2024/02/25 03:19:16;;;;;;;;;;;6.50;99.90;;;;;;5054120;28;19905;-78
2024/02/25 03:21:43;;;;;;;;;;;6.50;99.90;;;;;;5055726;28;19934;-79
2024/02/25 03:24:12;;;;;;;;;;;6.40;99.90;;;;;;5049745;28;19936;-78
2024/02/25 03:26:38;;;;;;;;;;;6.30;99.90;;;;;;5038106;28;19936;-80
2024/02/25 03:29:05;;;;;;;;;;;6.00;99.90;;;;;;5036987;28;19912;-79
2024/02/25 03:31:32;;;;;;;;;;;6.20;99.90;;;;;;5038354;28;19905;-79
2024/02/25 03:33:58;;;;;;;;;;;6.30;99.90;;;;;;5035737;28;19909;-77
2024/02/25 03:36:23;;;;;;;;;;;6.30;99.90;;;;;;5047118;28;19927;-78
2024/02/25 03:38:49;;;;;;;;;;;6.70;99.90;;;;;;5029597;28;19947;-77
2024/02/25 03:41:17;;;;;;;;;;;6.40;99.90;;;;;;5047669;28;19913;-78
2024/02/25 03:43:43;;;;;;;;;;;6.10;99.90;;;;;;5028648;28;19909;-77
2024/02/25 03:46:09;;;;;;;;;;;5.80;99.90;;;;;;5045985;28;20377;-78
2024/02/25 03:48:34;;;;;;;;;;;6.50;99.90;;;;;;5047182;28;19909;-77
2024/02/25 03:51:00;;;;;;;;;;;6.20;99.90;;;;;;5029250;28;19905;-79
2024/02/25 03:53:26;;;;;;;;;;;6.20;99.90;;;;;;5028179;28;19928;-78
2024/02/25 03:55:51;;;;;;;;;;;6.20;99.90;;;;;;5028504;28;19909;-78
2024/02/25 03:58:17;;;;;;;;;;;6.10;99.90;;;;;;5026490;28;20385;-78
2024/02/25 04:00:42;;;;;;;;;;;6.10;99.90;;;;;;5027593;28;19909;-78
2024/02/25 04:03:08;;;;;;;;;;;6.10;99.90;;;;;;5046225;28;19909;-78
2024/02/25 04:05:34;;;;;;;;;;;6.10;99.90;;;;;;5028055;28;19931;-78
2024/02/25 04:07:59;;;;;;;;;;;6.30;99.90;;;;;;5027096;28;20193;-78
2024/02/25 04:10:25;;;;;;;;;;;6.00;99.90;;;;;;5026069;28;19913;-78
2024/02/25 04:12:51;;;;;;;;;;;6.20;99.90;;;;;;5028221;28;20316;-78
2024/02/25 04:15:16;;;;;;;;;;;6.00;99.90;;;;;;5031304;28;19905;-78
2024/02/25 04:17:42;;;;;;;;;;;5.90;99.90;;;;;;5049595;28;19905;-78
2024/02/25 04:20:08;;;;;;;;;;;5.80;99.90;;;;;;5046943;28;20270;-78
2024/02/25 04:22:33;;;;;;;;;;;5.70;99.90;;;;;;5053684;28;19909;-78
2024/02/25 04:24:59;;;;;;;;;;;5.70;99.90;;;;;;5050840;28;20262;-78
2024/02/25 04:27:24;;;;;;;;;;;5.60;99.90;;;;;;5043276;28;19905;-78
2024/02/25 04:29:50;;;;;;;;;;;5.60;99.90;;;;;;5027256;28;19919;-77
2024/02/25 04:32:16;;;;;;;;;;;6.20;99.90;;;;;;5048294;28;19905;-79
2024/02/25 04:34:41;;;;;;;;;;;5.60;99.90;;;;;;5049101;28;19905;-77
2024/02/25 04:37:07;;;;;;;;;;;5.70;99.90;;;;;;5034470;28;20064;-79
2024/02/25 04:39:35;;;;;;;;;;;5.80;99.90;;;;;;5028901;28;20404;-78
2024/02/25 04:42:02;;;;;;;;;;;5.80;99.90;;;;;;5047680;28;20369;-79
2024/02/25 04:44:28;;;;;;;;;;;5.80;99.90;;;;;;5029637;28;19940;-78
2024/02/25 04:46:53;;;;;;;;;;;6.20;99.90;;;;;;5046900;28;19913;-78
2024/02/25 04:49:20;;;;;;;;;;;6.00;99.90;;;;;;5029820;28;19905;-79
2024/02/25 04:51:45;;;;;;;;;;;6.00;99.90;;;;;;5030007;28;20007;-78
2024/02/25 04:54:13;;;;;;;;;;;6.10;99.90;;;;;;5027982;28;20381;-79
2024/02/25 04:56:39;;;;;;;;;;;6.10;99.90;;;;;;5047117;28;19905;-78
2024/02/25 04:59:05;;;;;;;;;;;6.10;99.90;;;;;;5030746;28;19931;-79
2024/02/25 05:01:30;;;;;;;;;;;6.10;99.90;;;;;;5048449;28;20385;-79
2024/02/25 05:03:56;;;;;;;;;;;6.00;99.90;;;;;;5047384;28;19973;-78
2024/02/25 05:06:21;;;;;;;;;;;6.10;99.90;;;;;;5047567;28;20021;-78
2024/02/25 05:08:47;;;;;;;;;;;5.90;99.90;;;;;;5046513;28;19933;-79
2024/02/25 05:11:13;;;;;;;;;;;6.10;99.90;;;;;;5030209;28;19905;-78
2024/02/25 05:13:38;;;;;;;;;;;6.00;99.90;;;;;;5028880;28;19905;-78
2024/02/25 05:16:05;;;;;;;;;;;6.00;99.90;;;;;;5029372;28;19909;-79
2024/02/25 05:18:30;;;;;;;;;;;6.00;99.90;;;;;;5045874;28;19905;-79
2024/02/25 05:20:57;;;;;;;;;;;5.10;99.90;;;;;;5044765;28;19916;-77
2024/02/25 05:23:22;;;;;;;;;;;5.70;99.90;;;;;;5045676;28;19908;-78
2024/02/25 05:25:48;;;;;;;;;;;5.70;99.90;;;;;;5028475;28;19959;-77
2024/02/25 05:28:14;;;;;;;;;;;5.60;99.90;;;;;;5040573;28;19908;-77
2024/02/25 05:30:39;;;;;;;;;;;5.80;99.90;;;;;;5021301;28;20336;-78
2024/02/25 05:33:09;;;;;;;;;;;5.40;99.90;;;;;;5022454;28;19921;-78
2024/02/25 05:35:36;;;;;;;;;;;6.00;99.90;;;;;;5027166;28;19897;-77
2024/02/25 05:38:02;;;;;;;;;;;5.40;99.90;;;;;;5046402;28;19928;-78
2024/02/25 05:40:27;;;;;;;;;;;5.40;99.90;;;;;;5028625;28;19913;-78
2024/02/25 05:42:53;;;;;;;;;;;5.40;99.90;;;;;;5043401;28;19909;-77
2024/02/25 05:45:19;;;;;;;;;;;5.80;99.90;;;;;;5026134;28;19979;-78
2024/02/25 05:47:44;;;;;;;;;;;5.60;99.90;;;;;;5043424;28;20432;-79
2024/02/25 05:50:10;;;;;;;;;;;5.60;99.90;;;;;;5026807;28;19905;-78
2024/02/25 05:52:35;;;;;;;;;;;5.70;99.90;;;;;;5042742;28;19909;-77
2024/02/25 05:55:01;;;;;;;;;;;5.60;99.90;;;;;;5030420;28;19931;-79
2024/02/25 05:57:26;;;;;;;;;;;5.70;99.90;;;;;;5030520;28;19905;-78
2024/02/25 05:59:52;;;;;;;;;;;5.70;99.90;;;;;;5032421;28;19905;-78
2024/02/25 06:02:17;;;;;;;;;;;5.70;99.90;;;;;;5049512;28;19909;-79
2024/02/25 06:04:43;;;;;;;;;;;5.70;99.90;;;;;;5049791;28;19917;-80
2024/02/25 06:07:08;;;;;;;;;;;5.80;99.90;;;;;;5053887;28;19916;-78
2024/02/25 06:09:34;;;;;;;;;;;5.80;99.90;;;;;;5050906;28;19967;-79
2024/02/25 06:12:03;;;;;;;;;;;5.90;99.90;;;;;;5031665;28;19906;-80
2024/02/25 06:14:29;;;;;;;;;;;6.00;99.90;;;;;;5034096;28;20393;-78
2024/02/25 06:16:54;;;;;;;;;;;6.20;99.90;;;;;;5044566;28;19916;-78
2024/02/25 06:19:20;;;;;;;;;;;6.40;99.90;;;;;;5026550;28;20469;-78
2024/02/25 06:21:45;;;;;;;;;;;6.50;99.90;;;;;;5027500;28;19913;-78
2024/02/25 06:24:11;;;;;;;;;;;6.70;99.90;;;;;;5045891;28;19913;-80
2024/02/25 06:26:37;;;;;;;;;;;6.90;99.90;;;;;;5047231;28;19905;-77
2024/02/25 06:29:04;;;;;;;;;;;7.10;99.90;;;;;;5031955;28;19931;-79
2024/02/25 06:31:31;;;;;;;;;;;7.30;99.90;;;;;;5052198;28;19912;-79
2024/02/25 06:33:56;;;;;;;;;;;7.40;99.90;;;;;;5034404;28;19911;-78
2024/02/25 06:36:22;;;;;;;;;;;8.00;99.90;;;;;;5037576;28;19904;-80
2024/02/25 06:38:47;;;;;;;;;;;8.30;99.90;;;;;;5038995;28;19952;-79
2024/02/25 06:41:17;;;;;;;;;;;8.60;99.90;;;;;;5035019;28;19989;-78
2024/02/25 06:43:43;;;;;;;;;;;8.80;99.90;;;;;;5028978;28;20285;-79
2024/02/25 06:46:08;;;;;;;;;;;8.90;99.90;;;;;;5034947;28;19905;-78
2024/02/25 06:48:34;;;;;;;;;;;8.90;99.90;;;;;;5031186;28;19913;-79
2024/02/25 06:50:59;;;;;;;;;;;9.00;99.90;;;;;;5033435;28;19956;-77
2024/02/25 06:53:27;;;;;;;;;;;9.10;99.90;;;;;;5028167;28;19908;-78
2024/02/25 06:55:52;;;;;;;;;;;9.10;99.90;;;;;;5055533;28;19905;-78
2024/02/25 06:58:18;;;;;;;;;;;9.00;99.90;;;;;;5042359;28;19912;-79
2024/02/25 07:00:43;;;;;;;;;;;9.00;99.90;;;;;;5039681;28;19913;-79
2024/02/25 07:03:09;;;;;;;;;;;9.00;99.90;;;;;;5039450;28;19921;-79
2024/02/25 07:05:35;;;;;;;;;;;8.90;99.90;;;;;;5039637;28;19949;-78
2024/02/25 07:08:00;;;;;;;;;;;9.00;99.90;;;;;;5038171;28;19942;-78
2024/02/25 07:10:26;;;;;;;;;;;9.30;99.90;;;;;;5054150;28;19905;-78
2024/02/25 07:12:51;;;;;;;;;;;9.10;99.90;;;;;;5051106;28;19911;-78
2024/02/25 07:15:17;;;;;;;;;;;9.20;99.90;;;;;;5054298;28;20329;-79
2024/02/25 07:17:43;;;;;;;;;;;9.30;99.90;;;;;;5035707;28;19889;-79
2024/02/25 07:20:08;;;;;;;;;;;9.30;99.90;;;;;;5024914;28;20669;-77
2024/02/25 07:22:34;;;;;;;;;;;9.30;99.90;;;;;;5043502;28;19967;-77
2024/02/25 07:24:59;;;;;;;;;;;9.40;99.90;;;;;;5042229;28;19905;-77
2024/02/25 07:27:25;;;;;;;;;;;9.40;99.90;;;;;;5024843;28;19909;-78
2024/02/25 07:29:50;;;;;;;;;;;9.40;99.90;;;;;;5025534;28;19909;-78
2024/02/25 07:32:16;;;;;;;;;;;9.40;99.90;;;;;;5045001;28;19905;-78
2024/02/25 07:34:42;;;;;;;;;;;9.40;99.90;;;;;;5044402;28;19905;-78
2024/02/25 07:37:07;;;;;;;;;;;9.50;99.90;;;;;;5046415;28;20469;-79
2024/02/25 07:39:33;;;;;;;;;;;9.90;99.90;;;;;;5027281;28;19908;-78
2024/02/25 07:41:59;;;;;;;;;;;9.70;99.90;;;;;;5029057;28;20016;-78
2024/02/25 07:44:24;;;;;;;;;;;9.80;99.90;;;;;;5029236;28;19936;-79
2024/02/25 07:46:50;;;;;;;;;;;10.00;99.90;;;;;;5046473;28;19940;-78
2024/02/25 07:49:16;;;;;;;;;;;10.20;99.90;;;;;;5028510;28;20031;-78
2024/02/25 07:51:41;;;;;;;;;;;10.30;99.90;;;;;;5049296;28;19909;-78
2024/02/25 07:54:06;;;;;;;;;;;10.40;99.90;;;;;;5051680;28;19912;-78
2024/02/25 07:56:32;;;;;;;;;;;10.60;99.90;;;;;;5035451;28;19905;-79
2024/02/25 07:58:57;;;;;;;;;;;10.70;99.90;;;;;;5049098;28;19928;-79
2024/02/25 08:01:23;;;;;;;;;;;10.70;99.90;;;;;;5046188;28;19913;-79
2024/02/25 08:03:49;;;;;;;;;;;10.80;99.90;;;;;;5046233;28;20001;-79
2024/02/25 08:06:22;;;;;;;;;;;10.90;99.90;;;;;;5030122;28;19909;-78
2024/02/25 08:08:48;;;;;;;;;;;11.00;99.90;;;;;;5031081;28;19907;-78
2024/02/25 08:11:14;;;;;;;;;;;11.20;99.90;;;;;;5030533;28;19911;-79
2024/02/25 08:13:39;;;;;;;;;;;11.20;99.90;;;;;;5048033;28;19901;-78
2024/02/25 08:16:05;;;;;;;;;;;11.30;99.90;;;;;;5031081;28;19905;-79
2024/02/25 08:18:30;;;;;;;;;;;11.40;99.90;;;;;;5030176;28;19913;-77
2024/02/25 08:20:56;;;;;;;;;;;11.60;99.90;;;;;;5030912;28;19913;-79
2024/02/25 08:23:21;;;;;;;;;;;11.80;99.90;;;;;;5048607;28;19911;-77
2024/02/25 08:25:47;;;;;;;;;;;12.00;99.90;;;;;;5035882;28;20391;-79
2024/02/25 08:28:12;;;;;;;;;;;12.20;99.90;;;;;;5036498;28;19948;-78
2024/02/25 08:30:38;;;;;;;;;;;12.30;99.90;;;;;;5036557;28;20376;-78
2024/02/25 08:33:03;;;;;;;;;;;12.50;99.90;;;;;;5030237;28;20027;-77
2024/02/25 08:35:29;;;;;;;;;;;12.50;99.90;;;;;;5051633;28;19952;-78
2024/02/25 08:37:55;;;;;;;;;;;12.50;99.90;;;;;;5035869;28;19897;-79
2024/02/25 08:40:22;;;;;;;;;;;12.70;99.90;;;;;;5030891;28;19905;-79
2024/02/25 08:42:48;;;;;;;;;;;12.70;99.90;;;;;;5050267;28;19908;-78
2024/02/25 08:45:13;;;;;;;;;;;13.00;99.90;;;;;;5034176;28;19905;-77
2024/02/25 08:47:39;;;;;;;;;;;13.20;99.90;;;;;;5053194;28;19909;-78
2024/02/25 08:50:05;;;;;;;;;;;13.30;99.90;;;;;;5053648;28;19913;-81
2024/02/25 08:52:30;;;;;;;;;;;13.50;99.90;;;;;;5040795;28;19997;-83
2024/02/25 08:54:56;;;;;;;;;;;13.60;99.90;;;;;;5082028;22;19944;-79
2024/02/25 08:57:21;;;;;;;;;;;13.60;99.50;;;;;;5026567;28;19906;-78
2024/02/25 08:59:47;;;;;;;;;;;13.50;99.00;;;;;;5028189;28;19915;-78
2024/02/25 09:02:13;;;;;;;;;;;13.30;99.30;;;;;;5035562;28;19897;-79
2024/02/25 09:04:39;;;;;;;;;;;13.20;99.90;;;;;;5032873;28;19909;-78
2024/02/25 09:07:04;;;;;;;;;;;13.10;99.70;;;;;;5035057;28;19910;-79
2024/02/25 09:09:31;;;;;;;;;;;13.00;99.90;;;;;;5033674;28;19912;-78
2024/02/25 09:11:57;;;;;;;;;;;12.90;99.90;;;;;;5031867;28;19909;-78
2024/02/25 09:14:22;;;;;;;;;;;13.10;99.90;;;;;;5029883;28;20004;-78
2024/02/25 09:16:48;;;;;;;;;;;13.30;99.90;;;;;;5029986;28;19917;-78
2024/02/25 09:19:15;;;;;;;;;;;13.70;99.90;;;;;;5030814;28;20259;-78
2024/02/25 09:21:40;;;;;;;;;;;13.90;98.40;;;;;;5031986;28;19917;-79
2024/02/25 09:24:07;;;;;;;;;;;13.90;97.90;;;;;;5032436;28;19911;-79
2024/02/25 09:26:32;;;;;;;;;;;13.90;97.30;;;;;;5031908;28;19905;-78
2024/02/25 09:28:58;;;;;;;;;;;13.70;97.20;;;;;;5032599;28;19905;-79
2024/02/25 09:31:24;;;;;;;;;;;13.60;97.70;;;;;;5029721;28;19909;-79
2024/02/25 09:33:54;;;;;;;;;;;13.30;98.10;;;;;;5029675;28;20026;-79
2024/02/25 09:36:23;;;;;;;;;;;13.10;99.60;;;;;;5030521;28;20408;-79
2024/02/25 09:38:50;;;;;;;;;;;12.70;99.90;;;;;;5031144;28;19933;-77
2024/02/25 09:41:18;;;;;;;;;;;12.60;99.90;;;;;;5033819;28;19897;-78
2024/02/25 09:43:44;;;;;;;;;;;12.50;99.90;;;;;;5031961;28;19890;-78
2024/02/25 09:46:10;;;;;;;;;;;12.40;99.90;;;;;;5031757;28;19912;-79
2024/02/25 09:48:36;;;;;;;;;;;12.30;99.90;;;;;;5034177;28;19929;-79
2024/02/25 09:51:02;;;;;;;;;;;12.30;99.90;;;;;;5034271;28;19929;-78
2024/02/25 09:53:29;;;;;;;;;;;12.30;99.90;;;;;;5036054;28;19905;-79
2024/02/25 09:55:55;;;;;;;;;;;12.30;99.90;;;;;;5030220;28;20008;-79
2024/02/25 09:58:21;;;;;;;;;;;12.30;99.90;;;;;;5030889;28;19909;-79
2024/02/25 10:00:47;;;;;;;;;;;12.10;99.90;;;;;;5035001;28;19897;-79
2024/02/25 10:03:13;;;;;;;;;;;12.10;99.90;;;;;;5200154;22;19991;-79
2024/02/25 10:05:39;;;;;;;;;;;12.70;99.90;;;;;;5053146;28;19905;-78
2024/02/25 10:08:11;;;;;;;;;;;12.00;99.90;;;;;;5030818;28;19916;-80
2024/02/25 10:10:38;;;;;;;;;;;12.70;99.90;;;;;;5050481;28;19956;-78
2024/02/25 10:13:04;;;;;;;;;;;12.10;99.90;;;;;;5049827;28;19905;-80
2024/02/25 10:15:30;;;;;;;;;;;12.30;99.90;;;;;;5048151;28;19932;-79
2024/02/25 10:17:55;;;;;;;;;;;12.50;99.90;;;;;;5053347;28;19897;-79
2024/02/25 10:20:22;;;;;;;;;;;12.60;99.90;;;;;;5053021;28;19905;-79
2024/02/25 10:23:04;;;;;;;;;;;12.80;99.90;;;;;;5054430;28;19905;-79
2024/02/25 10:25:29;;;;;;;;;;;12.90;99.90;;;;;;5054628;28;19909;-79
2024/02/25 10:28:10;;;;;;;;;;;12.80;99.90;;;;;;5054997;28;19916;-79
2024/02/25 10:30:36;;;;;;;;;;;12.90;99.90;;;;;;5057481;28;19915;-79
2024/02/25 10:33:12;;;;;;;;;;;12.60;99.90;;;;;;5052139;28;20370;-78
2024/02/25 10:35:37;;;;;;;;;;;12.90;99.90;;;;;;5051052;28;19905;-78
2024/02/25 10:38:03;;;;;;;;;;;12.80;99.90;;;;;;5052291;28;19901;-78
2024/02/25 10:40:29;;;;;;;;;;;13.10;99.90;;;;;;5055599;28;19909;-79
2024/02/25 10:42:55;;;;;;;;;;;12.90;99.90;;;;;;5055203;28;19908;-79
2024/02/25 10:45:21;;;;;;;;;;;12.90;99.90;;;;;;5052072;28;19905;-79
2024/02/25 10:47:47;;;;;;;;;;;12.80;99.90;;;;;;5052033;28;19905;-79
2024/02/25 10:50:15;;;;;;;;;;;12.80;99.90;;;;;;5052477;28;19905;-78
2024/02/25 10:52:42;;;;;;;;;;;12.90;99.90;;;;;;5052908;28;19901;-78
2024/02/25 10:55:08;;;;;;;;;;;12.90;99.90;;;;;;5050536;28;19912;-78
2024/02/25 10:57:34;;;;;;;;;;;12.80;99.90;;;;;;5051827;28;19901;-79
2024/02/25 11:00:01;;;;;;;;;;;12.80;99.90;;;;;;5054370;28;19889;-78
2024/02/25 11:04:52;;;;;;;;;;;12.80;99.90;;;;;;5599666;22;19931;-78
2024/02/25 11:07:18;;;;;;;;;;;12.90;99.90;;;;;;5052718;28;20023;-77
2024/02/25 11:09:43;;;;;;;;;;;13.20;99.90;;;;;;5053897;28;19913;-78
2024/02/25 11:12:27;;;;;;;;;;;13.40;99.90;;;;;;5053914;28;19909;-79
2024/02/25 11:14:58;;;;;;;;;;;13.60;99.90;;;;;;5030583;28;19928;-78
2024/02/25 11:17:28;;;;;;;;;;;13.70;99.90;;;;;;5033376;28;19909;-78
2024/02/25 11:19:58;;;;;;;;;;;13.80;99.90;;;;;;5037881;28;19976;-78
2024/02/25 11:22:40;;;;;;;;;;;13.90;99.90;;;;;;5038560;28;19897;-79
2024/02/25 11:25:06;;;;;;;;;;;13.90;99.90;;;;;;5036669;28;19905;-79
2024/02/25 11:27:50;;;;;;;;;;;13.80;99.90;;;;;;5058135;28;19911;-78
2024/02/25 11:30:16;;;;;;;;;;;13.80;99.90;;;;;;5041932;28;19893;-79
2024/02/25 11:32:42;;;;;;;;;;;13.80;99.90;;;;;;5042127;28;19912;-80
2024/02/25 11:37:43;;;;;;;;;;;13.60;99.90;;;;;;5646678;22;19905;-78
2024/02/25 11:40:10;;;;;;;;;;;13.50;99.90;;;;;;5058292;28;19968;-78
2024/02/25 11:42:35;;;;;;;;;;;13.30;99.90;;;;;;5042242;28;19936;-80
2024/02/25 11:45:01;;;;;;;;;;;13.80;99.90;;;;;;5037382;28;19905;-79
2024/02/25 11:47:26;;;;;;;;;;;13.60;99.90;;;;;;5058687;28;19959;-79
2024/02/25 11:49:53;;;;;;;;;;;13.60;99.90;;;;;;5051527;28;19939;-78
2024/02/25 11:52:19;;;;;;;;;;;13.60;99.90;;;;;;5036769;28;19905;-78
2024/02/25 11:54:44;;;;;;;;;;;13.70;98.00;;;;;;5038046;28;19943;-79
2024/02/25 11:57:10;;;;;;;;;;;13.60;98.20;;;;;;5040522;28;19916;-79
2024/02/25 11:59:36;;;;;;;;;;;13.60;97.90;;;;;;5058673;28;19889;-78
2024/02/25 12:02:02;;;;;;;;;;;13.60;97.90;;;;;;5040373;28;19913;-78
2024/02/25 12:04:27;;;;;;;;;;;13.60;97.30;;;;;;5041151;28;19912;-78
2024/02/25 12:06:53;;;;;;;;;;;13.50;98.10;;;;;;5057672;28;19921;-78
2024/02/25 12:09:22;;;;;;;;;;;13.60;98.60;;;;;;5057513;28;19889;-78
2024/02/25 12:11:48;;;;;;;;;;;13.60;98.60;;;;;;5057612;28;19968;-79
2024/02/25 12:14:14;;;;;;;;;;;13.50;98.50;;;;;;5057189;28;19889;-78
2024/02/25 12:16:39;;;;;;;;;;;13.60;98.70;;;;;;5040411;28;19889;-79
2024/02/25 12:19:05;;;;;;;;;;;13.60;98.70;;;;;;5054183;28;19916;-78
2024/02/25 12:21:31;;;;;;;;;;;13.60;99.00;;;;;;5034889;28;19897;-78
2024/02/25 12:24:00;;;;;;;;;;;13.70;98.50;;;;;;5057976;28;19969;-79
2024/02/25 12:26:26;;;;;;;;;;;13.70;98.30;;;;;;5058036;28;19905;-78
2024/02/25 12:28:52;;;;;;;;;;;13.70;98.10;;;;;;5040802;28;19896;-79
2024/02/25 12:31:18;;;;;;;;;;;13.70;98.70;;;;;;5041283;28;19893;-79
2024/02/25 12:33:45;;;;;;;;;;;13.40;99.20;;;;;;5058572;28;19909;-78
2024/02/25 12:36:11;;;;;;;;;;;13.50;99.60;;;;;;5040281;28;19909;-79
2024/02/25 12:38:45;;;;;;;;;;;13.60;99.90;;;;;;5036009;28;19955;-79
2024/02/25 12:41:13;;;;;;;;;;;13.50;99.90;;;;;;5039638;28;19920;-78
2024/02/25 12:43:41;;;;;;;;;;;13.50;99.90;;;;;;5055085;28;19894;-79
2024/02/25 12:46:07;;;;;;;;;;;13.50;99.90;;;;;;5033433;28;19905;-78
2024/02/25 12:48:33;;;;;;;;;;;13.50;99.90;;;;;;5052734;28;19916;-78
2024/02/25 12:50:59;;;;;;;;;;;13.40;99.90;;;;;;5050563;28;19916;-78
2024/02/25 12:53:24;;;;;;;;;;;13.60;99.90;;;;;;5016775;28;19913;-77
2024/02/25 12:55:50;;;;;;;;;;;13.60;99.90;;;;;;5041702;28;19944;-78
2024/02/25 12:58:16;;;;;;;;;;;13.60;99.90;;;;;;5044081;28;19916;-77
2024/02/25 13:00:41;;;;;;;;;;;13.50;99.90;;;;;;5028645;28;19913;-78
2024/02/25 13:03:07;;;;;;;;;;;13.50;99.90;;;;;;5051931;28;19928;-78
2024/02/25 13:05:35;;;;;;;;;;;13.30;99.90;;;;;;5033299;28;20308;-77
2024/02/25 13:08:01;;;;;;;;;;;13.30;99.90;;;;;;5033981;28;19912;-79
2024/02/25 13:10:27;;;;;;;;;;;13.80;99.90;;;;;;5054742;28;19956;-79
2024/02/25 13:12:53;;;;;;;;;;;13.50;99.90;;;;;;5041398;28;19908;-78
2024/02/25 13:15:18;;;;;;;;;;;12.80;99.90;;;;;;5032408;28;19910;-79
2024/02/25 13:17:44;;;;;;;;;;;13.40;99.90;;;;;;5029856;28;19961;-78
2024/02/25 13:20:14;;;;;;;;;;;13.40;99.90;;;;;;5053397;28;19988;-78
2024/02/25 13:22:40;;;;;;;;;;;13.40;99.90;;;;;;5038305;28;19901;-79
2024/02/25 13:25:08;;;;;;;;;;;13.40;99.90;;;;;;5039208;28;19964;-77
2024/02/25 13:27:34;;;;;;;;;;;13.30;99.90;;;;;;5049929;28;19995;-79
2024/02/25 13:30:00;;;;;;;;;;;13.20;99.90;;;;;;5048011;28;19905;-78
2024/02/25 13:32:26;;;;;;;;;;;12.80;99.90;;;;;;5034198;28;19920;-78
2024/02/25 13:34:52;;;;;;;;;;;13.00;99.90;;;;;;5033632;28;19912;-78
2024/02/25 13:37:17;;;;;;;;;;;13.30;99.90;;;;;;5052432;28;19913;-78
2024/02/25 13:39:43;;;;;;;;;;;12.80;99.90;;;;;;5034773;28;19909;-78
2024/02/25 13:42:09;;;;;;;;;;;12.80;99.90;;;;;;5038008;28;20271;-79
2024/02/25 13:44:36;;;;;;;;;;;12.80;99.90;;;;;;5052121;28;19905;-79
2024/02/25 13:47:02;;;;;;;;;;;12.70;99.90;;;;;;5029824;28;19905;-78
2024/02/25 13:49:28;;;;;;;;;;;12.70;99.90;;;;;;5030383;28;19905;-78
2024/02/25 13:51:59;;;;;;;;;;;12.60;99.90;;;;;;5050648;28;19896;-78
2024/02/25 13:54:25;;;;;;;;;;;12.70;99.90;;;;;;5033166;28;19909;-79
2024/02/25 13:56:51;;;;;;;;;;;12.40;99.90;;;;;;5030762;28;19905;-78
2024/02/25 13:59:17;;;;;;;;;;;12.70;99.90;;;;;;5050253;28;19959;-78
2024/02/25 14:01:43;;;;;;;;;;;12.70;99.90;;;;;;5056905;22;19921;-79
2024/02/25 14:04:09;;;;;;;;;;;12.70;99.90;;;;;;5033720;28;19905;-79
2024/02/25 14:06:36;;;;;;;;;;;12.70;99.90;;;;;;5031449;28;19905;-77
2024/02/25 14:09:02;;;;;;;;;;;12.80;99.90;;;;;;5048727;28;19909;-80
2024/02/25 14:11:28;;;;;;;;;;;12.80;99.90;;;;;;5048274;28;19905;-80
2024/02/25 14:13:56;;;;;;;;;;;12.80;99.90;;;;;;5031741;28;20401;-79
2024/02/25 14:16:22;;;;;;;;;;;12.70;99.90;;;;;;5050665;28;20007;-79
2024/02/25 14:18:47;;;;;;;;;;;12.80;99.90;;;;;;5053356;28;19928;-76
2024/02/25 14:21:13;;;;;;;;;;;12.70;99.90;;;;;;5050360;28;19939;-79
2024/02/25 14:23:41;;;;;;;;;;;12.70;99.90;;;;;;5048645;28;19964;-79